Time;durP1;ratioP1;P1;durP2;ratioP2;P2;SDS_P1;SDS_P2;PMS_P1;PMS_P2;Temp;Humidity;BMP_temperature;BMP_pressure;BME280_temperature;BME280_humidity;BME280_pressure;Samples;Min_cycle;Max_cycle;Signal;HPM_P1;HPM_P2
2021/12/02 00:00:55;;;;;;;4.25;4.05;;;;;;;4.36;100.00;99396.25;4398373;32;20174;-71
2021/12/02 00:03:20;;;;;;;3.08;2.97;;;;;;;4.36;100.00;99393.66;4380262;32;20907;-69
2021/12/02 00:05:45;;;;;;;3.87;3.70;;;;;;;4.35;100.00;99393.72;4400047;32;20061;-71
2021/12/02 00:08:11;;;;;;;3.00;2.90;;;;;;;3.19;100.00;99208.84;4392740;32;20065;-70
2021/12/02 00:10:40;;;;;;;3.17;3.08;;;;;;;4.34;100.00;99394.66;4392920;32;20083;-71
2021/12/02 00:13:05;;;;;;;3.00;2.90;;;;;;;4.38;100.00;99398.78;4390891;32;20155;-72
2021/12/02 00:15:44;;;;;;;3.30;3.20;;;;;;;4.33;100.00;99393.81;4382311;32;20086;-71
2021/12/02 00:23:33;;;;;;;2.90;2.80;;;;;;;4.39;100.00;99400.50;4385092;32;20080;-71
2021/12/02 00:25:59;;;;;;;4.85;4.65;;;;;;;3.75;100.00;99292.75;4381013;32;20139;-70
2021/12/02 00:28:26;;;;;;;3.15;3.05;;;;;;;4.42;100.00;99407.28;4379582;32;20069;-71
2021/12/02 00:30:54;;;;;;;4.47;4.28;;;;;;;4.40;100.00;99405.59;4371034;32;20329;-71
2021/12/02 00:33:19;;;;;;;2.90;2.80;;;;;;;4.41;100.00;99403.84;4394568;32;20143;-71
2021/12/02 00:35:45;;;;;;;3.22;3.12;;;;;;;4.38;100.00;99406.59;4391735;32;20080;-71
2021/12/02 00:38:11;;;;;;;3.40;3.20;;;;;;;3.85;100.00;99316.47;4381715;32;20139;-71
2021/12/02 00:40:36;;;;;;;3.10;3.00;;;;;;;3.82;100.00;99303.66;4385039;32;20496;-71
2021/12/02 00:43:01;;;;;;;3.97;3.78;;;;;;;4.43;100.00;99432.34;4391013;32;20973;-71
2021/12/02 00:45:27;;;;;;;3.10;3.00;;;;;;;4.32;100.00;99396.50;4385753;32;20154;-71
2021/12/02 00:47:52;;;;;;;3.08;2.97;;;;;;;4.44;100.00;99415.84;4393257;32;20073;-71
2021/12/02 00:50:18;;;;;;;2.90;2.80;;;;;;;4.46;100.00;99414.03;4381323;32;20084;-71
2021/12/02 00:52:46;;;;;;;3.20;3.10;;;;;;;4.43;100.00;99415.00;4393101;32;20176;-71
2021/12/02 00:55:12;;;;;;;3.20;3.10;;;;;;;4.46;100.00;99421.81;4381436;32;20111;-71
2021/12/02 00:57:40;;;;;;;3.20;3.10;;;;;;;4.46;100.00;99411.41;4393084;32;20081;-71
2021/12/02 01:00:06;;;;;;;3.50;3.40;;;;;;;4.43;100.00;99421.94;4397922;32;20060;-71
2021/12/02 01:02:33;;;;;;;3.80;3.62;;;;;;;4.42;100.00;99423.72;4385776;32;20080;-71
2021/12/02 01:04:59;;;;;;;4.70;4.50;;;;;;;4.46;100.00;99414.03;4383801;32;20073;-72
2021/12/02 01:07:31;;;;;;;3.15;3.05;;;;;;;4.40;100.00;99397.78;4395470;32;20146;-71
2021/12/02 01:10:32;;;;;;;3.60;3.50;;;;;;;4.52;100.00;99418.91;4392123;32;20270;-71
2021/12/02 01:16:42;;;;;;;3.05;2.95;;;;;;;3.98;100.00;99357.34;4378666;32;20479;-71
2021/12/02 01:19:49;;;;;;;3.20;3.10;;;;;;;4.57;100.00;99422.13;4372210;32;20088;-71
2021/12/02 01:22:33;;;;;;;3.50;3.37;;;;;;;1.63;100.00;98955.22;4392473;32;20119;-71
2021/12/02 01:24:59;;;;;;;4.47;4.28;;;;;;;4.57;100.00;99422.13;4357796;32;20081;-71
2021/12/02 01:27:24;;;;;;;3.10;3.00;;;;;;;4.48;100.00;99412.19;4379927;32;20598;-72
2021/12/02 01:29:50;;;;;;;4.30;4.10;;;;;;;4.60;100.00;99427.19;4396389;32;20897;-73
2021/12/02 01:32:15;;;;;;;3.17;3.08;;;;;;;4.56;100.00;99434.28;4401076;32;20089;-72
2021/12/02 01:34:43;;;;;;;3.00;2.90;;;;;;;4.15;100.00;99384.28;4388501;32;20060;-71
2021/12/02 01:37:11;;;;;;;3.47;3.37;;;;;;;4.04;100.00;99376.19;4396970;32;20216;-72
2021/12/02 01:39:37;;;;;;;3.12;3.03;;;;;;;4.38;100.00;99409.19;4401430;32;20436;-71
2021/12/02 01:42:02;;;;;;;3.72;3.62;;;;;;;4.53;100.00;99426.66;4392825;32;20403;-71
2021/12/02 01:44:28;;;;;;;3.20;3.10;;;;;;;4.36;100.00;99403.22;4400749;32;20090;-72
2021/12/02 01:46:58;;;;;;;4.75;4.55;;;;;;;4.53;100.00;99430.97;4392664;32;20105;-72
2021/12/02 01:49:29;;;;;;;3.55;3.35;;;;;;;3.57;100.00;99277.09;4388662;32;20428;-71
2021/12/02 01:51:55;;;;;;;5.10;4.90;;;;;;;4.52;100.00;99432.75;4382638;32;20073;-71
2021/12/02 01:54:22;;;;;;;3.20;3.10;;;;;;;4.47;100.00;99415.69;4378703;32;20149;-72
2021/12/02 01:56:49;;;;;;;4.55;4.35;;;;;;;3.29;100.00;99217.06;4383513;32;20073;-71
2021/12/02 01:59:25;;;;;;;3.17;3.08;;;;;;;4.54;100.00;99432.69;4380839;32;20091;-71
2021/12/02 02:01:51;;;;;;;3.33;3.22;;;;;;;4.48;100.00;99427.78;4385282;32;20272;-71
2021/12/02 02:04:17;;;;;;;3.25;3.08;;;;;;;4.55;100.00;99429.16;4382377;32;20079;-73
2021/12/02 02:06:56;;;;;;;3.22;3.12;;;;;;;4.32;100.00;99412.06;4380167;32;20844;-73
2021/12/02 02:09:23;;;;;;;2.95;2.85;;;;;;;3.45;100.00;99295.81;4387582;32;20227;-72
2021/12/02 02:11:49;;;;;;;3.75;3.62;;;;;;;4.44;100.00;99434.88;4386332;32;20415;-71
2021/12/02 02:14:14;;;;;;;3.00;2.90;;;;;;;3.90;100.00;99343.91;4374800;32;20946;-73
2021/12/02 02:16:41;;;;;;;2.95;2.85;;;;;;;4.39;100.00;99432.50;4397382;32;20436;-73
2021/12/02 02:19:09;;;;;;;3.05;2.95;;;;;;;4.49;100.00;99439.84;4378990;32;20101;-71
2021/12/02 02:21:36;;;;;;;3.25;3.15;;;;;;;4.40;100.00;99441.12;4382728;32;20073;-72
2021/12/02 02:24:02;;;;;;;4.03;3.83;;;;;;;4.38;100.00;99423.00;4394438;32;20091;-72
2021/12/02 02:26:31;;;;;;;3.00;2.90;;;;;;;4.32;100.00;99423.28;4388358;32;20072;-71
2021/12/02 02:28:57;;;;;;;3.17;3.08;;;;;;;4.06;100.00;99374.34;4397965;32;20091;-72
2021/12/02 02:31:22;;;;;;;3.28;3.17;;;;;;;4.36;100.00;99427.44;4398443;32;20194;-72
2021/12/02 02:33:49;;;;;;;3.10;3.00;;;;;;;4.35;100.00;99417.09;4398523;32;20083;-72
2021/12/02 02:36:15;;;;;;;3.95;3.78;;;;;;;4.25;100.00;99406.34;4394331;32;20465;-71
2021/12/02 02:38:41;;;;;;;3.22;3.12;;;;;;;4.29;100.00;99415.66;4386973;32;20734;-71
2021/12/02 02:41:08;;;;;;;3.20;3.10;;;;;;;4.30;100.00;99424.28;4400582;32;20107;-72
2021/12/02 02:43:34;;;;;;;3.20;3.10;;;;;;;4.27;100.00;99420.09;4385866;32;20085;-72
2021/12/02 02:45:59;;;;;;;4.60;4.40;;;;;;;4.19;100.00;99425.62;4392059;32;20052;-72
2021/12/02 02:48:25;;;;;;;3.10;3.00;;;;;;;4.09;100.00;99401.00;4385710;32;20783;-72
2021/12/02 02:50:50;;;;;;;3.10;3.00;;;;;;;4.20;100.00;99419.50;4391066;32;20483;-71
2021/12/02 02:53:21;;;;;;;3.10;3.00;;;;;;;4.24;100.00;99414.19;4378071;32;20061;-72
2021/12/02 02:56:00;;;;;;;3.00;2.90;;;;;;;4.21;100.00;99415.19;4396749;32;20599;-71
2021/12/02 03:01:46;;;;;;;3.47;3.30;;;;;;;4.23;100.00;99418.56;4406993;32;20613;-72
2021/12/02 03:04:15;;;;;;;4.50;4.30;;;;;;;4.15;100.00;99426.69;4393009;32;20215;-71
2021/12/02 03:06:56;;;;;;;3.75;3.55;;;;;;;3.66;100.00;99327.72;4387302;32;20065;-71
2021/12/02 03:11:54;;;;;;;4.32;4.12;;;;;;;4.20;100.00;99427.31;4407704;32;20064;-71
2021/12/02 03:14:27;;;;;;;3.30;3.20;;;;;;;4.18;100.00;99421.34;4382073;32;20701;-70
2021/12/02 03:16:52;;;;;;;4.55;4.35;;;;;;;4.16;100.00;99428.34;4391497;32;20087;-70
2021/12/02 03:19:23;;;;;;;3.00;2.90;;;;;;;4.11;100.00;99435.53;4379332;32;20577;-71
2021/12/02 03:21:48;;;;;;;4.03;3.85;;;;;;;4.14;100.00;99440.56;4389964;32;20085;-70
2021/12/02 03:24:14;;;;;;;3.00;2.90;;;;;;;4.17;100.00;99442.22;4382527;32;20186;-70
2021/12/02 03:26:39;;;;;;;2.80;2.70;;;;;;;4.12;100.00;99439.78;4393932;32;20080;-71
2021/12/02 03:29:05;;;;;;;3.00;2.90;;;;;;;3.05;100.00;99260.47;4390415;32;20637;-71
2021/12/02 03:31:30;;;;;;;3.00;2.90;;;;;;;4.12;100.00;99433.78;4398834;32;20083;-71
2021/12/02 03:33:55;;;;;;;3.00;2.90;;;;;;;4.13;100.00;99435.44;4394596;32;20159;-71
2021/12/02 03:36:21;;;;;;;3.10;3.00;;;;;;;4.11;100.00;99439.88;4390105;32;20166;-70
2021/12/02 03:38:46;;;;;;;3.78;3.62;;;;;;;4.12;100.00;99441.56;4378789;32;20072;-70
2021/12/02 03:41:12;;;;;;;3.50;3.40;;;;;;;4.04;100.00;99443.66;4388840;32;20081;-70
2021/12/02 03:43:39;;;;;;;3.00;2.90;;;;;;;3.47;100.00;99345.00;4380128;32;20657;-71
2021/12/02 03:46:04;;;;;;;3.35;3.25;;;;;;;4.00;100.00;99442.97;4390336;32;20345;-71
2021/12/02 03:48:30;;;;;;;3.15;3.05;;;;;;;3.96;100.00;99441.41;4385489;32;20554;-71
2021/12/02 03:50:55;;;;;;;4.97;4.78;;;;;;;3.97;100.00;99438.75;4376236;32;20583;-71
2021/12/02 03:53:20;;;;;;;3.00;2.90;;;;;;;3.30;100.00;99335.41;4392056;32;20073;-71
2021/12/02 03:55:46;;;;;;;4.07;3.90;;;;;;;3.20;100.00;99317.66;4390388;32;20057;-70
2021/12/02 03:58:11;;;;;;;2.87;2.78;;;;;;;3.80;100.00;99386.75;4378642;32;20080;-71
2021/12/02 04:00:36;;;;;;;3.00;2.90;;;;;;;3.95;100.00;99414.63;4396093;32;20535;-71
2021/12/02 04:03:02;;;;;;;4.12;3.92;;;;;;;3.59;100.00;99363.47;4389358;32;20072;-71
2021/12/02 04:05:27;;;;;;;3.00;2.90;;;;;;;4.03;99.73;99436.78;4401274;32;20688;-70
2021/12/02 04:07:53;;;;;;;4.47;4.28;;;;;;;3.97;99.76;99430.97;4390032;32;20077;-70
2021/12/02 04:10:19;;;;;;;3.00;2.90;;;;;;;4.00;98.89;99440.38;4392285;32;20083;-70
2021/12/02 04:15:21;;;;;;;2.90;2.80;;;;;;;3.82;97.57;99447.22;4408574;32;20664;-71
2021/12/02 04:17:46;;;;;;;3.80;3.65;;;;;;;3.70;97.51;99445.16;4381564;32;20081;-69
2021/12/02 04:20:12;;;;;;;3.00;2.90;;;;;;;3.59;98.12;99443.06;4392408;32;20119;-71
2021/12/02 04:22:37;;;;;;;2.83;2.72;;;;;;;3.45;97.92;99445.37;4402060;32;20068;-70
2021/12/02 04:25:03;;;;;;;3.00;2.90;;;;;;;3.38;98.02;99450.84;4403270;32;20103;-70
2021/12/02 04:27:29;;;;;;;3.65;3.53;;;;;;;3.26;97.66;99432.38;4379092;32;20195;-70
2021/12/02 04:29:54;;;;;;;4.57;4.37;;;;;;;3.40;97.15;99449.03;4392601;32;20095;-70
2021/12/02 04:32:19;;;;;;;3.00;2.90;;;;;;;3.36;97.06;99444.03;4394319;32;20138;-70
2021/12/02 04:34:45;;;;;;;3.47;3.35;;;;;;;3.32;97.47;99452.84;4391101;32;20449;-71
2021/12/02 04:37:10;;;;;;;2.75;2.65;;;;;;;2.96;98.30;99381.75;4380399;32;20081;-71
2021/12/02 04:39:36;;;;;;;2.90;2.80;;;;;;;3.28;97.95;99448.72;4381949;32;20118;-71
2021/12/02 04:42:01;;;;;;;3.67;3.58;;;;;;;2.91;98.72;99408.78;4390369;32;21643;-71
2021/12/02 04:44:27;;;;;;;16.50;15.70;;;;;;;3.27;99.09;99459.97;4346630;32;20183;-72
2021/12/02 04:46:53;;;;;;;4.30;4.10;;;;;;;3.20;99.74;99460.22;4374150;32;20072;-71
2021/12/02 04:49:18;;;;;;;3.00;2.90;;;;;;;2.17;100.00;99300.44;4387124;32;20197;-71
2021/12/02 04:51:44;;;;;;;2.85;2.75;;;;;;;3.15;100.00;99451.00;4391311;32;20596;-71
2021/12/02 04:54:09;;;;;;;2.80;2.70;;;;;;;3.15;100.00;99454.41;4378988;32;20099;-71
2021/12/02 04:56:35;;;;;;;2.85;2.75;;;;;;;3.22;100.00;99455.00;4384273;32;20169;-71
2021/12/02 04:59:00;;;;;;;4.37;4.18;;;;;;;3.24;100.00;99458.34;4393828;32;20068;-71
2021/12/02 05:01:25;;;;;;;2.80;2.70;;;;;;;3.19;100.00;99450.78;4381757;32;20500;-71
2021/12/02 05:03:51;;;;;;;4.35;4.15;;;;;;;3.30;100.00;99458.09;4393248;32;20069;-71
2021/12/02 05:06:16;;;;;;;3.72;3.50;;;;;;;3.34;100.00;99462.25;4395291;32;20080;-72
2021/12/02 05:08:41;;;;;;;2.87;2.78;;;;;;;2.17;100.00;99296.09;4400683;32;20064;-71
2021/12/02 05:11:07;;;;;;;2.75;2.65;;;;;;;3.37;100.00;99461.28;4401595;32;20083;-71
2021/12/02 05:13:32;;;;;;;3.10;3.00;;;;;;;3.40;100.00;99469.75;4398218;32;20495;-71
2021/12/02 05:15:57;;;;;;;4.55;4.35;;;;;;;3.45;100.00;99471.31;4392101;32;20076;-71
2021/12/02 05:18:23;;;;;;;3.08;2.97;;;;;;;3.49;100.00;99458.19;4395643;32;20073;-71
2021/12/02 05:20:48;;;;;;;4.45;4.25;;;;;;;3.48;100.00;99461.66;4380313;32;20065;-71
2021/12/02 05:23:14;;;;;;;28.40;4.25;;;;;;;3.51;100.00;99451.16;4393460;32;20154;-71
2021/12/02 05:25:43;;;;;;;3.00;2.90;;;;;;;3.59;100.00;99462.06;4398508;32;20150;-70
2021/12/02 05:28:09;;;;;;;2.80;2.70;;;;;;;3.58;100.00;99462.13;4396388;32;20488;-71
2021/12/02 05:30:34;;;;;;;2.80;2.70;;;;;;;3.59;100.00;99462.06;4395858;32;20100;-71
2021/12/02 05:32:59;;;;;;;4.45;4.25;;;;;;;3.45;100.00;99437.59;4393526;32;20057;-70
2021/12/02 05:35:25;;;;;;;3.05;2.95;;;;;;;2.53;100.00;99294.66;4381580;32;20061;-71
2021/12/02 05:37:50;;;;;;;4.60;4.40;;;;;;;3.10;100.00;99385.53;4396691;32;20153;-71
2021/12/02 05:40:15;;;;;;;2.83;2.72;;;;;;;3.51;100.00;99458.94;4387225;32;20073;-71
2021/12/02 05:42:41;;;;;;;3.08;2.97;;;;;;;3.25;100.00;99428.09;4395636;32;20077;-71
2021/12/02 05:45:06;;;;;;;3.00;2.90;;;;;;;3.42;100.00;99461.09;4379088;32;20158;-71
2021/12/02 05:47:32;;;;;;;3.00;2.90;;;;;;;3.37;100.00;99463.88;4399369;32;20065;-71
2021/12/02 05:49:57;;;;;;;4.45;4.25;;;;;;;3.32;100.00;99464.06;4393185;32;20676;-71
2021/12/02 05:52:22;;;;;;;3.10;3.00;;;;;;;3.35;100.00;99460.53;4396997;32;20069;-70
2021/12/02 05:54:48;;;;;;;3.35;3.25;;;;;;;3.39;100.00;99464.66;4391349;32;20141;-70
2021/12/02 05:57:13;;;;;;;3.10;3.00;;;;;;;3.37;100.00;99458.72;4394229;32;20653;-70
2021/12/02 05:59:38;;;;;;;2.90;2.80;;;;;;;3.24;100.00;99457.53;4399133;32;20417;-70
2021/12/02 06:02:07;;;;;;;2.87;2.78;;;;;;;3.28;100.00;99448.72;4381325;32;20680;-70
2021/12/02 06:04:32;;;;;;;2.80;2.70;;;;;;;3.26;100.00;99458.31;4386646;32;20079;-70
2021/12/02 06:06:57;;;;;;;4.55;4.35;;;;;;;3.24;100.00;99471.31;4395523;32;20076;-70
2021/12/02 06:09:23;;;;;;;3.00;2.90;;;;;;;3.18;100.00;99472.41;4386040;32;20077;-70
2021/12/02 06:11:48;;;;;;;3.85;3.70;;;;;;;3.04;100.00;99466.13;4396581;32;20374;-73
2021/12/02 06:14:14;;;;;;;3.00;2.90;;;;;;;2.97;100.00;99475.91;4380889;32;20079;-70
2021/12/02 06:16:40;;;;;;;3.42;3.22;;;;;;;2.18;100.00;99351.28;4398812;32;20151;-70
2021/12/02 06:19:06;;;;;;;2.70;2.60;;;;;;;3.00;100.00;99493.91;4375452;32;20900;-71
2021/12/02 06:21:32;;;;;;;2.90;2.80;;;;;;;2.98;100.00;99493.97;4382670;32;20844;-70
2021/12/02 06:23:57;;;;;;;4.47;4.28;;;;;;;2.95;99.94;99501.03;4395401;32;20082;-71
2021/12/02 06:26:22;;;;;;;3.00;2.90;;;;;;;2.59;99.37;99447.19;4385746;32;20064;-70
2021/12/02 06:28:49;;;;;;;4.10;3.90;;;;;;;2.54;99.09;99441.34;4392171;32;20067;-70
2021/12/02 06:31:15;;;;;;;2.90;2.80;;;;;;;2.87;98.96;99503.94;4399304;32;20088;-70
2021/12/02 06:33:40;;;;;;;2.90;2.80;;;;;;;2.88;98.54;99505.59;4380497;32;20135;-70
2021/12/02 06:36:06;;;;;;;2.70;2.60;;;;;;;2.89;97.74;99506.47;4396259;32;20270;-70
2021/12/02 06:38:31;;;;;;;2.90;2.80;;;;;;;2.91;97.87;99521.06;4384399;32;20068;-70
2021/12/02 06:40:56;;;;;;;4.68;4.47;;;;;;;2.88;98.01;99510.78;4398612;32;20060;-70
2021/12/02 06:43:22;;;;;;;2.90;2.80;;;;;;;2.80;98.12;99518.03;4382105;32;20073;-70
2021/12/02 06:45:47;;;;;;;4.32;4.12;;;;;;;2.51;98.27;99469.97;4394838;32;20064;-70
2021/12/02 06:48:13;;;;;;;4.55;4.35;;;;;;;2.74;97.98;99516.50;4408964;32;20149;-69
2021/12/02 06:50:38;;;;;;;3.10;3.00;;;;;;;2.83;98.69;99545.56;4381884;32;20080;-69
2021/12/02 06:53:05;;;;;;;3.65;3.55;;;;;;;2.55;99.02;99503.44;4407300;32;20065;-69
2021/12/02 06:55:30;;;;;;;2.70;2.60;;;;;;;2.80;99.02;99523.22;4383416;32;20068;-69
2021/12/02 06:57:55;;;;;;;3.78;3.65;;;;;;;2.74;99.41;99537.25;4380673;32;20087;-69
2021/12/02 07:00:22;;;;;;;2.78;2.67;;;;;;;2.57;99.84;99503.41;4382792;32;20569;-68
2021/12/02 07:02:48;;;;;;;3.47;3.37;;;;;;;2.67;99.83;99514.25;4410822;32;20069;-70
2021/12/02 07:05:15;;;;;;;2.90;2.80;;;;;;;2.78;100.00;99533.63;4384939;32;20069;-69
2021/12/02 07:07:40;;;;;;;2.72;2.62;;;;;;;2.79;100.00;99537.91;4387359;32;20567;-69
2021/12/02 07:10:10;;;;;;;2.70;2.60;;;;;;;2.84;100.00;99534.31;4397984;32;20073;-69
2021/12/02 07:12:38;;;;;;;2.90;2.80;;;;;;;2.85;100.00;99542.03;4374319;32;20088;-69
2021/12/02 07:15:08;;;;;;;3.42;3.33;;;;;;;2.80;99.96;99539.59;4399856;32;20053;-69
2021/12/02 07:17:33;;;;;;;3.00;2.90;;;;;;;2.89;100.00;99540.16;4383515;32;20069;-69
2021/12/02 07:20:00;;;;;;;4.55;4.35;;;;;;;2.89;99.64;99553.97;4406872;32;20092;-69
2021/12/02 07:22:25;;;;;;;3.30;3.20;;;;;;;2.93;99.30;99552.09;4385129;32;20064;-69
2021/12/02 07:24:50;;;;;;;4.43;4.22;;;;;;;2.92;99.40;99555.56;4396847;32;20609;-72
2021/12/02 07:27:16;;;;;;;2.67;2.58;;;;;;;2.35;99.68;99470.53;4388646;32;20063;-72
2021/12/02 07:29:41;;;;;;;2.80;2.70;;;;;;;2.97;99.76;99559.69;4401500;32;20073;-72
2021/12/02 07:32:09;;;;;;;2.90;2.80;;;;;;;2.74;99.89;99541.59;4385672;32;20983;-72
2021/12/02 07:34:34;;;;;;;2.90;2.80;;;;;;;2.88;99.69;99564.38;4396759;32;20077;-72
2021/12/02 07:37:00;;;;;;;4.85;4.65;;;;;;;2.75;98.75;99541.53;4388801;32;20331;-72
2021/12/02 07:39:26;;;;;;;2.90;2.80;;;;;;;2.15;98.34;99447.16;4396074;32;20057;-72
2021/12/02 07:41:51;;;;;;;4.75;4.55;;;;;;;2.71;98.64;99557.25;4391157;32;20073;-72
2021/12/02 07:44:16;;;;;;;3.45;3.35;;;;;;;2.88;98.29;99588.53;4398363;32;20586;-72
2021/12/02 07:46:42;;;;;;;2.70;2.60;;;;;;;2.70;97.91;99552.97;4380617;32;20834;-72
2021/12/02 07:49:11;;;;;;;4.62;4.43;;;;;;;2.92;98.01;99591.84;4380422;32;20103;-72
2021/12/02 07:51:36;;;;;;;2.90;2.80;;;;;;;2.89;97.73;99585.06;4377882;32;20150;-72
2021/12/02 07:54:02;;;;;;;3.35;3.25;;;;;;;1.87;97.16;99432.66;4390128;32;20108;-73
2021/12/02 07:56:27;;;;;;;2.97;2.87;;;;;;;2.87;97.53;99619.72;4380238;32;20081;-72
2021/12/02 07:58:53;;;;;;;4.75;4.55;;;;;;;2.66;96.42;99557.41;4392047;32;20657;-72
2021/12/02 08:01:18;;;;;;;2.70;2.60;;;;;;;2.31;96.43;99512.16;4381592;32;20146;-72
2021/12/02 08:03:47;;;;;;;2.75;2.65;;;;;;;2.94;96.42;99608.19;4394615;32;20064;-74
2021/12/02 08:06:16;;;;;;;2.83;2.72;;;;;;;2.83;95.89;99605.16;4380081;32;20096;-72
2021/12/02 08:08:41;;;;;;;2.75;2.65;;;;;;;2.68;96.62;99615.19;4400448;32;20068;-73
2021/12/02 08:11:07;;;;;;;2.80;2.70;;;;;;;2.70;96.63;99605.63;4390778;32;20679;-75
2021/12/02 08:13:33;;;;;;;2.70;2.60;;;;;;;2.73;96.39;99628.00;4399754;32;20661;-72
2021/12/02 08:15:58;;;;;;;4.40;4.20;;;;;;;2.77;95.99;99619.19;4391665;32;20169;-73
2021/12/02 08:18:24;;;;;;;2.87;2.78;;;;;;;2.74;96.81;99620.13;4390927;32;20068;-72
2021/12/02 08:20:49;;;;;;;3.65;3.53;;;;;;;2.75;96.80;99626.19;4393594;32;20105;-72
2021/12/02 08:23:14;;;;;;;2.70;2.60;;;;;;;2.78;96.87;99636.41;4390597;32;20195;-72
2021/12/02 08:25:40;;;;;;;2.87;2.78;;;;;;;2.80;96.78;99632.88;4383311;32;20547;-72
2021/12/02 08:28:05;;;;;;;2.72;2.62;;;;;;;2.48;96.79;99589.19;4392601;32;20084;-72
2021/12/02 08:30:32;;;;;;;2.90;2.80;;;;;;;2.53;96.96;99618.38;4382286;32;20560;-72
2021/12/02 08:32:58;;;;;;;4.53;4.32;;;;;;;2.64;97.24;99647.28;4398658;32;20073;-72
2021/12/02 08:35:24;;;;;;;2.67;2.58;;;;;;;2.60;97.55;99650.87;4377958;32;20405;-72
2021/12/02 08:37:53;;;;;;;4.60;4.40;;;;;;;2.59;97.59;99677.72;4382089;32;20068;-72
2021/12/02 08:40:31;;;;;;;4.43;4.22;;;;;;;2.38;98.38;99638.72;4383139;32;20540;-74
2021/12/02 08:42:57;;;;;;;4.53;4.32;;;;;;;2.50;98.54;99663.31;4401400;32;20972;-73
2021/12/02 08:45:22;;;;;;;2.80;2.70;;;;;;;2.45;99.25;99669.59;4388474;32;20460;-72
2021/12/02 08:47:48;;;;;;;3.40;3.30;;;;;;;2.49;99.27;99656.47;4388237;32;20187;-71
2021/12/02 08:50:17;;;;;;;4.70;4.50;;;;;;;2.52;99.55;99663.28;4384304;32;20068;-69
2021/12/02 08:52:43;;;;;;;2.90;2.80;;;;;;;2.54;99.39;99677.00;4389997;32;20310;-71
2021/12/02 08:55:08;;;;;;;3.22;3.12;;;;;;;2.41;99.39;99661.06;4378545;32;20076;-72
2021/12/02 08:57:35;;;;;;;2.95;2.85;;;;;;;2.54;98.97;99683.03;4388537;32;20123;-73
2021/12/02 09:00:01;;;;;;;4.40;4.20;;;;;;;2.50;98.95;99667.66;4380709;32;20238;-71
2021/12/02 09:02:26;;;;;;;2.83;2.72;;;;;;;2.56;98.71;99696.78;4394699;32;20144;-71
2021/12/02 09:04:52;;;;;;;4.80;4.60;;;;;;;2.53;98.68;99696.91;4380065;32;20520;-74
2021/12/02 09:07:18;;;;;;;2.80;2.70;;;;;;;2.05;97.33;99633.00;4391865;32;20462;-75
2021/12/02 09:09:43;;;;;;;2.83;2.72;;;;;;;2.09;96.82;99631.16;4411284;32;20342;-75
2021/12/02 09:12:09;;;;;;;3.05;2.95;;;;;;;2.48;97.14;99667.72;4379808;32;20472;-75
2021/12/02 09:14:35;;;;;;;2.80;2.70;;;;;;;2.53;96.32;99681.34;4387621;32;20572;-70
2021/12/02 09:17:00;;;;;;;4.43;4.22;;;;;;;2.74;96.45;99708.22;4391178;32;20116;-70
2021/12/02 09:19:26;;;;;;;2.60;2.50;;;;;;;2.22;96.16;99627.22;4378701;32;20574;-69
2021/12/02 09:21:51;;;;;;;4.12;3.92;;;;;;;2.52;96.21;99674.47;4395512;32;20093;-73
2021/12/02 09:24:19;;;;;;;2.80;2.70;;;;;;;1.85;96.51;99565.56;4386491;32;20080;-73
2021/12/02 09:26:46;;;;;;;3.08;2.97;;;;;;;2.83;96.64;99726.94;4399082;32;20464;-75
2021/12/02 09:29:12;;;;;;;2.78;2.67;;;;;;;2.36;96.49;99661.22;4388573;32;20200;-73
2021/12/02 09:31:38;;;;;;;2.70;2.60;;;;;;;3.05;96.22;99727.00;4386379;32;20350;-73
2021/12/02 09:34:03;;;;;;;3.50;3.40;;;;;;;3.20;96.07;99727.28;4398824;32;21251;-73
2021/12/02 09:36:28;;;;;;;2.60;2.50;;;;;;;3.25;95.73;99721.06;4393100;32;20065;-74
2021/12/02 09:38:54;;;;;;;4.55;4.35;;;;;;;2.97;95.21;99697.03;4377329;32;20073;-71
2021/12/02 09:41:19;;;;;;;2.90;2.80;;;;;;;3.14;95.53;99732.69;4396927;32;20142;-73
2021/12/02 09:43:45;;;;;;;2.67;2.58;;;;;;;2.96;96.12;99739.38;4383690;32;20325;-74
2021/12/02 09:46:10;;;;;;;2.80;2.70;;;;;;;3.12;96.36;99731.91;4386859;32;20069;-73
2021/12/02 09:48:36;;;;;;;2.80;2.70;;;;;;;3.08;95.27;99745.88;4383319;32;20084;-74
2021/12/02 09:51:10;;;;;;;4.05;3.85;;;;;;;3.11;95.49;99737.16;4391456;32;20088;-73
2021/12/02 09:54:21;;;;;;;2.80;2.70;;;;;;;3.02;95.17;99743.50;4380542;32;20078;-74
2021/12/02 09:56:28;;;;;;;2.80;2.70;;;;;;;3.09;95.68;99749.34;4392834;32;20154;-74
2021/12/02 09:58:55;;;;;;;4.57;4.37;;;;;;;2.90;94.56;99721.47;4394868;32;20084;-74
2021/12/02 10:01:25;;;;;;;3.10;3.00;;;;;;;3.09;94.38;99719.06;4387040;32;20065;-75
2021/12/02 10:03:58;;;;;;;4.47;4.28;;;;;;;3.27;93.04;99750.37;4395604;32;20084;-74
2021/12/02 10:06:28;;;;;;;3.08;2.97;;;;;;;3.33;92.42;99748.41;4393784;32;20080;-74
2021/12/02 10:08:59;;;;;;;4.18;3.97;;;;;;;1.95;92.32;99521.19;4385641;32;20120;-75
2021/12/02 10:11:27;;;;;;;3.00;2.90;;;;;;;3.40;92.18;99754.22;4382116;32;20171;-71
2021/12/02 10:14:00;;;;;;;4.95;4.75;;;;;;;3.29;91.94;99746.84;4404356;32;20162;-74
2021/12/02 10:16:31;;;;;;;;;;;;;;;3.09;92.08;99745.00;4385955;32;20717;-73
2021/12/02 10:21:38;;;;;;;3.00;2.90;;;;;;;3.59;91.54;99754.38;4411700;32;20068;-73
2021/12/02 10:24:08;;;;;;;3.90;3.72;;;;;;;3.64;90.53;99676.34;4391153;32;20246;-74
2021/12/02 10:26:36;;;;;;;2.90;2.80;;;;;;;3.57;87.48;99642.03;4397537;32;20195;-73
2021/12/02 10:29:07;;;;;;;4.28;4.07;;;;;;;3.63;86.74;99664.25;4394232;32;20096;-73
2021/12/02 10:31:32;;;;;;;3.10;3.00;;;;;;;4.20;86.87;99751.91;4396365;32;20069;-74
2021/12/02 10:34:02;;;;;;;4.68;4.47;;;;;;;4.07;85.49;99736.88;4383562;32;20077;-71
2021/12/02 10:36:35;;;;;;;3.10;3.00;;;;;;;3.79;85.14;99757.03;4393174;32;20180;-76
2021/12/02 10:39:17;;;;;;;4.80;4.60;;;;;;;3.45;86.87;99690.06;4393688;32;20897;-76
2021/12/02 10:41:44;;;;;;;2.97;2.87;;;;;;;2.55;86.33;99582.91;4389678;32;20176;-77
2021/12/02 10:44:20;;;;;;;2.90;2.80;;;;;;;4.17;87.31;99753.81;4398469;32;20190;-76
2021/12/02 10:46:54;;;;;;;3.58;3.42;;;;;;;3.99;87.06;99761.41;4384188;32;20064;-76
2021/12/02 10:49:19;;;;;;;3.00;2.90;;;;;;;3.11;85.59;99630.88;4382638;32;20418;-77
2021/12/02 10:51:47;;;;;;;3.10;3.00;;;;;;;2.79;86.09;99561.25;4388769;32;20306;-79
2021/12/02 10:54:18;;;;;;;3.05;2.95;;;;;;;3.75;86.20;99692.34;4395457;32;20101;-76
2021/12/02 10:56:46;;;;;;;2.85;2.75;;;;;;;4.29;85.58;99755.88;4380321;32;20166;-77
2021/12/02 10:59:27;;;;;;;3.00;2.90;;;;;;;4.30;85.59;99756.72;4381829;32;20524;-76
2021/12/02 11:01:54;;;;;;;4.72;4.53;;;;;;;4.05;84.82;99730.91;4400545;32;20353;-76
2021/12/02 11:04:20;;;;;;;3.00;2.90;;;;;;;4.12;85.49;99779.09;4386086;32;20194;-76
2021/12/02 11:06:47;;;;;;;3.65;3.50;;;;;;;3.47;86.09;99645.88;4380773;32;20745;-74
2021/12/02 11:09:32;;;;;;;2.90;2.80;;;;;;;3.09;85.52;99617.97;4405749;32;20139;-77
2021/12/02 11:12:33;;;;;;;4.37;4.18;;;;;;;4.03;85.66;99756.97;4381223;32;20058;-76
2021/12/02 11:15:09;;;;;;;4.60;4.40;;;;;;;4.07;84.85;99752.47;4394160;32;20064;-76
2021/12/02 11:17:38;;;;;;;2.90;2.80;;;;;;;2.65;84.85;99527.25;4397472;32;20158;-76
2021/12/02 11:20:09;;;;;;;2.90;2.80;;;;;;;3.73;86.25;99715.75;4392777;32;20940;-76
2021/12/02 11:22:34;;;;;;;5.45;3.83;;;;;;;3.44;86.81;99667.59;4385667;32;20065;-76
2021/12/02 11:24:59;;;;;;;4.28;4.07;;;;;;;3.89;88.08;99757.50;4407459;32;20064;-76
2021/12/02 11:27:38;;;;;;;3.00;2.90;;;;;;;3.69;88.84;99766.06;4398305;32;20078;-77
2021/12/02 11:30:14;;;;;;;3.00;2.90;;;;;;;1.93;88.84;99512.66;4399418;32;20065;-76
2021/12/02 11:32:40;;;;;;;2.90;2.80;;;;;;;3.27;90.61;99768.53;4395545;32;20064;-76
2021/12/02 11:35:20;;;;;;;2.80;2.70;;;;;;;3.22;92.11;99766.09;4395006;32;20091;-76
2021/12/02 11:37:48;;;;;;;3.53;3.40;;;;;;;2.78;92.61;99733.13;4399099;32;20091;-76
2021/12/02 11:40:22;;;;;;;3.20;3.10;;;;;;;3.05;93.48;99765.88;4387150;32;20068;-76
2021/12/02 11:42:49;;;;;;;4.47;4.28;;;;;;;3.12;92.94;99770.78;4387498;32;20061;-77
2021/12/02 11:45:16;;;;;;;3.50;3.30;;;;;;;2.96;94.19;99785.19;4389469;32;20064;-76
2021/12/02 11:47:42;;;;;;;2.80;2.70;;;;;;;0.21;94.18;99350.50;4381731;32;20080;-76
2021/12/02 11:50:09;;;;;;;2.70;2.60;;;;;;;1.87;94.59;99626.69;4395280;32;20870;-76
2021/12/02 11:52:38;;;;;;;2.70;2.60;;;;;;;2.70;95.68;99734.31;4417567;32;20115;-77
2021/12/02 11:55:09;;;;;;;3.10;3.00;;;;;;;3.01;95.80;99778.13;4379848;32;20420;-76
2021/12/02 11:57:35;;;;;;;2.78;2.67;;;;;;;2.53;95.09;99711.59;4407603;32;20087;-77
2021/12/02 12:00:04;;;;;;;4.55;4.35;;;;;;;2.10;95.09;99623.31;4387287;32;20093;-76